createdAt,value
2023-09-06T00:00:44.724Z,94259.97
2023-09-06T00:03:12.548Z,94253.88
2023-09-06T00:05:42.875Z,94253.75
2023-09-06T00:08:15.985Z,94253.28
2023-09-06T00:10:43.753Z,94242.41
2023-09-06T00:13:12.696Z,94244.00
2023-09-06T00:15:39.191Z,94253.28
2023-09-06T00:18:07.595Z,94240.13
2023-09-06T00:20:39.265Z,94254.66
2023-09-06T00:23:09.906Z,94252.81
2023-09-06T00:25:37.134Z,94223.72
2023-09-06T00:28:05.334Z,94231.38
2023-09-06T00:30:32.372Z,94255.22
2023-09-06T00:33:00.154Z,94253.59
2023-09-06T00:35:27.906Z,94256.81
2023-09-06T00:37:55.569Z,94253.78
2023-09-06T00:40:22.944Z,94249.16
2023-09-06T00:42:54.599Z,94241.06
2023-09-06T00:45:24.411Z,94221.94
2023-09-06T00:47:52.321Z,94231.38
2023-09-06T00:50:19.488Z,94236.22
2023-09-06T00:52:47.674Z,94217.66
2023-09-06T00:55:14.542Z,94246.28
2023-09-06T00:57:41.923Z,94218.81
2023-09-06T01:00:15.380Z,94225.63
2023-09-06T01:02:42.015Z,94228.00
2023-09-06T01:05:08.805Z,94215.72
2023-09-06T01:07:38.635Z,94237.69
2023-09-06T01:10:05.931Z,94232.44
2023-09-06T01:12:35.712Z,94242.34
2023-09-06T01:15:05.686Z,94231.66
2023-09-06T01:17:36.061Z,94231.22
2023-09-06T01:20:16.506Z,94226.78
2023-09-06T01:22:49.065Z,94215.09
2023-09-06T01:25:16.397Z,94220.31
2023-09-06T01:27:43.009Z,94224.41
2023-09-06T01:30:09.798Z,94215.72
2023-09-06T01:32:36.581Z,94224.41
2023-09-06T01:35:04.542Z,94220.75
2023-09-06T01:37:31.197Z,94218.34
2023-09-06T01:39:57.662Z,94230.41
2023-09-06T01:42:24.161Z,94218.72
2023-09-06T01:44:50.688Z,94216.72
2023-09-06T01:47:17.157Z,94229.19
2023-09-06T01:49:46.246Z,94228.81
2023-09-06T01:52:12.823Z,94212.84
2023-09-06T01:54:39.340Z,94221.91
2023-09-06T01:57:07.530Z,94210.16
2023-09-06T01:59:34.249Z,94212.53
2023-09-06T02:02:00.742Z,94213.69
2023-09-06T02:04:27.257Z,94206.00
2023-09-06T02:06:53.727Z,94206.78
2023-09-06T02:09:20.617Z,94215.25
2023-09-06T02:11:47.263Z,94212.47
2023-09-06T02:14:13.711Z,94179.41
2023-09-06T02:16:40.297Z,94197.41
2023-09-06T02:19:07.694Z,94202.31
2023-09-06T02:21:35.291Z,94205.38
2023-09-06T02:24:01.769Z,94196.66
2023-09-06T02:26:30.673Z,94211.16
2023-09-06T02:28:58.109Z,94215.38
2023-09-06T02:31:24.693Z,94221.06
2023-09-06T02:33:51.268Z,94208.53
2023-09-06T02:36:17.736Z,94219.03
2023-09-06T02:38:46.385Z,94222.19
2023-09-06T02:41:14.401Z,94210.44
2023-09-06T02:43:40.867Z,94224.16
2023-09-06T02:46:07.371Z,94209.25
2023-09-06T02:48:34.866Z,94203.94
2023-09-06T02:51:01.468Z,94216.81
2023-09-06T02:53:32.331Z,94206.53
2023-09-06T02:56:00.197Z,94216.38
2023-09-06T02:58:27.373Z,94203.09
2023-09-06T03:00:58.805Z,94212.94
2023-09-06T03:03:28.146Z,94224.97
2023-09-06T03:06:05.796Z,94206.00
2023-09-06T03:08:33.191Z,94229.13
2023-09-06T03:11:00.016Z,94221.44
2023-09-06T03:13:26.539Z,94220.97
2023-09-06T03:15:53.130Z,94223.03
2023-09-06T03:18:23.845Z,94214.34
2023-09-06T03:20:50.678Z,94225.78
2023-09-06T03:23:20.770Z,94145.03
2023-09-06T03:25:55.289Z,94230.44
2023-09-06T03:28:22.986Z,94220.94
2023-09-06T03:30:50.021Z,94224.19
2023-09-06T03:33:18.122Z,94220.94
2023-09-06T03:35:46.455Z,94223.41
2023-09-06T03:38:16.766Z,94193.72
2023-09-06T03:40:43.713Z,94217.75
2023-09-06T03:43:16.056Z,94207.25
2023-09-06T03:45:47.091Z,94219.34
2023-09-06T03:48:18.867Z,94214.25
2023-09-06T03:50:47.303Z,94207.53
2023-09-06T03:53:15.836Z,94215.56
2023-09-06T03:55:45.248Z,94218.72
2023-09-06T03:58:12.111Z,94222.34
2023-09-06T04:00:43.156Z,94228.38
2023-09-06T04:03:10.093Z,94232.78
2023-09-06T04:05:36.694Z,94214.19
2023-09-06T04:08:08.316Z,94220.09
2023-09-06T04:10:37.932Z,94200.44
2023-09-06T04:13:05.888Z,94214.19
2023-09-06T04:15:35.914Z,94232.28
2023-09-06T04:18:04.602Z,94206.78
2023-09-06T04:20:33.346Z,94227.91
2023-09-06T04:23:00.561Z,94216.34
2023-09-06T04:25:28.704Z,94235.75
2023-09-06T04:27:58.299Z,94224.44
2023-09-06T04:30:26.408Z,94231.28
2023-09-06T04:32:53.023Z,94235.31
2023-09-06T04:35:19.855Z,94235.84
2023-09-06T04:37:46.429Z,94221.03
2023-09-06T04:40:14.034Z,94237.22
2023-09-06T04:42:43.832Z,94248.03
2023-09-06T04:45:11.591Z,94249.44
2023-09-06T04:47:44.884Z,94251.88
2023-09-06T04:50:14.575Z,94249.81
2023-09-06T04:52:46.206Z,94242.09
2023-09-06T04:55:15.874Z,94255.03
2023-09-06T04:57:43.105Z,94260.25
2023-09-06T05:00:31.807Z,94259.88
2023-09-06T05:02:59.188Z,94233.63
2023-09-06T05:05:26.793Z,94255.47
2023-09-06T05:07:54.343Z,94156.66
2023-09-06T05:10:20.909Z,94242.97
2023-09-06T05:12:47.536Z,94245.00
2023-09-06T05:15:14.610Z,94240.03
2023-09-06T05:17:41.878Z,94267.34
2023-09-06T05:20:27.846Z,94259.88
2023-09-06T05:22:59.226Z,94261.50
2023-09-06T05:25:26.153Z,94242.59
2023-09-06T05:27:59.247Z,94260.88
2023-09-06T05:30:26.769Z,94266.13
2023-09-06T05:32:55.541Z,94267.59
2023-09-06T05:35:22.825Z,94248.88
2023-09-06T05:37:50.296Z,94256.19
2023-09-06T05:40:23.501Z,94250.81
2023-09-06T05:42:51.162Z,94239.00
2023-09-06T05:45:19.617Z,94255.63
2023-09-06T05:47:46.550Z,94262.97
2023-09-06T05:50:13.109Z,94262.19
2023-09-06T05:52:39.636Z,94254.97
2023-09-06T05:55:07.884Z,94262.28
2023-09-06T05:57:34.340Z,94256.66
2023-09-06T06:00:01.297Z,94274.00
2023-09-06T06:02:28.595Z,94270.63
2023-09-06T06:04:56.351Z,94264.00
2023-09-06T06:07:22.961Z,94267.66
2023-09-06T06:09:49.865Z,94265.25
2023-09-06T06:12:23.207Z,94268.13
2023-09-06T06:14:51.610Z,94279.47
2023-09-06T06:17:18.907Z,94271.44
2023-09-06T06:19:46.461Z,94266.38
2023-09-06T06:22:13.135Z,94276.28
2023-09-06T06:24:44.487Z,94266.59
2023-09-06T06:27:11.295Z,94276.69
2023-09-06T06:29:37.999Z,94275.47
2023-09-06T06:32:05.178Z,94289.63
2023-09-06T06:34:31.833Z,94279.53
2023-09-06T06:36:58.320Z,94277.13
2023-09-06T06:39:24.784Z,94295.63
2023-09-06T06:41:51.847Z,94282.31
2023-09-06T06:44:18.364Z,94293.22
2023-09-06T06:46:44.980Z,94279.44
2023-09-06T06:49:11.507Z,94286.41
2023-09-06T06:51:40.381Z,94290.47
2023-09-06T06:54:11.310Z,94297.94
2023-09-06T06:56:38.512Z,94308.38
2023-09-06T06:59:05.405Z,94292.16
2023-09-06T07:01:32.456Z,94301.00
2023-09-06T07:03:59.644Z,94301.97
2023-09-06T07:06:27.101Z,94301.66
2023-09-06T07:08:54.586Z,94285.38
2023-09-06T07:11:21.508Z,94302.31
2023-09-06T07:13:49.780Z,94294.47
2023-09-06T07:16:24.189Z,94289.06
2023-09-06T07:18:51.440Z,94285.44
2023-09-06T07:21:19.637Z,94303.03
2023-09-06T07:23:47.174Z,94288.09
2023-09-06T07:26:13.745Z,94303.16
2023-09-06T07:28:46.345Z,94284.50
2023-09-06T07:31:15.335Z,94287.28
2023-09-06T07:33:42.043Z,94296.94
2023-09-06T07:36:08.496Z,94283.91
2023-09-06T07:38:35.360Z,94289.47
2023-09-06T07:41:04.150Z,94300.56
2023-09-06T07:43:31.180Z,94290.28
2023-09-06T07:45:59.058Z,94294.81
2023-09-06T07:48:27.055Z,94291.97
2023-09-06T07:50:54.121Z,94284.06
2023-09-06T07:53:20.676Z,94282.88
2023-09-06T07:55:47.604Z,94291.44
2023-09-06T07:58:15.698Z,94301.69
2023-09-06T08:00:43.021Z,94303.66
2023-09-06T08:03:10.691Z,94299.75
2023-09-06T08:05:38.310Z,94298.13
2023-09-06T08:08:12.192Z,94296.03
2023-09-06T08:10:39.297Z,94266.81
2023-09-06T08:13:05.868Z,94289.25
2023-09-06T08:15:33.254Z,94279.88
2023-09-06T08:18:00.557Z,94290.72
2023-09-06T08:20:27.098Z,94280.44
2023-09-06T08:22:53.605Z,94295.72
2023-09-06T08:25:20.695Z,94290.44
2023-09-06T08:27:47.196Z,94300.75
2023-09-06T08:30:16.396Z,94296.09
2023-09-06T08:32:44.935Z,94283.91
2023-09-06T08:35:14.373Z,94298.81
2023-09-06T08:37:41.419Z,94302.53
2023-09-06T08:40:08.819Z,94290.31
2023-09-06T08:42:36.184Z,94289.34
2023-09-06T08:45:05.056Z,94293.91
2023-09-06T08:47:32.330Z,94279.84
2023-09-06T08:50:00.489Z,94285.75
2023-09-06T08:52:27.493Z,94280.22
2023-09-06T08:54:54.073Z,94288.34
2023-09-06T08:57:24.325Z,94295.88
2023-09-06T08:59:51.070Z,94276.84
2023-09-06T09:02:17.867Z,94293.06
2023-09-06T09:04:44.575Z,94280.75
2023-09-06T09:07:12.281Z,94297.50
2023-09-06T09:10:12.494Z,94299.97
2023-09-06T09:12:39.765Z,94273.47
2023-09-06T09:15:21.235Z,94289.69
2023-09-06T09:20:22.462Z,94285.66
2023-09-06T09:22:51.425Z,94270.63
2023-09-06T09:25:24.375Z,94291.44
2023-09-06T09:27:55.544Z,94281.47
2023-09-06T09:30:22.960Z,94279.81
2023-09-06T09:32:49.708Z,94283.63
2023-09-06T09:35:17.068Z,94273.09
2023-09-06T09:37:52.144Z,94263.09
2023-09-06T09:40:25.886Z,94283.97
2023-09-06T09:42:57.749Z,94282.47
2023-09-06T09:45:34.848Z,94269.66
2023-09-06T09:48:01.616Z,94273.97
2023-09-06T09:50:30.850Z,94274.81
2023-09-06T09:53:02.672Z,94291.94
2023-09-06T09:55:45.802Z,94289.28
2023-09-06T09:58:13.078Z,94277.84
2023-09-06T10:00:42.727Z,94292.78
2023-09-06T10:03:11.044Z,94279.44
2023-09-06T10:05:39.546Z,94270.91
2023-09-06T10:08:10.660Z,94275.19
2023-09-06T10:10:39.243Z,94285.84
2023-09-06T10:13:09.679Z,94279.44
2023-09-06T10:15:37.641Z,94277.88
2023-09-06T10:18:06.353Z,94278.38
2023-09-06T10:20:35.877Z,94265.06
2023-09-06T10:23:02.738Z,94272.53
2023-09-06T10:25:29.638Z,94256.97
2023-09-06T10:27:57.539Z,94273.53
2023-09-06T10:30:41.612Z,94262.78
2023-09-06T10:33:09.540Z,94246.75
2023-09-06T10:35:43.109Z,94271.25
2023-09-06T10:38:16.838Z,94266.34
2023-09-06T10:40:50.127Z,94268.34
2023-09-06T10:43:17.819Z,94250.25
2023-09-06T10:46:05.711Z,94266.13
2023-09-06T10:48:33.594Z,94242.72
2023-09-06T10:51:14.219Z,94255.44
2023-09-06T10:53:48.544Z,94250.22
2023-09-06T10:56:15.089Z,94264.13
2023-09-06T10:58:41.536Z,94227.00
2023-09-06T11:01:14.232Z,94256.47
2023-09-06T11:03:42.711Z,94240.69
2023-09-06T11:06:10.608Z,94237.22
2023-09-06T11:08:39.909Z,94230.53
2023-09-06T11:11:10.112Z,94255.19
2023-09-06T11:13:38.646Z,94253.94
2023-09-06T11:16:06.642Z,94237.88
2023-09-06T11:18:44.752Z,94231.72
2023-09-06T11:21:11.379Z,94233.44
2023-09-06T11:23:49.078Z,94247.34
2023-09-06T11:26:16.150Z,94239.53
2023-09-06T11:28:44.509Z,94210.84
2023-09-06T11:31:23.793Z,94227.19
2023-09-06T11:33:57.330Z,94239.25
2023-09-06T11:36:33.237Z,94244.44
2023-09-06T11:39:19.692Z,94245.06
2023-09-06T11:41:46.579Z,94243.72
2023-09-06T11:44:15.929Z,94229.69
2023-09-06T11:46:44.783Z,94232.31
2023-09-06T11:49:12.589Z,94227.50
2023-09-06T11:51:42.409Z,94246.53
2023-09-06T11:54:10.858Z,94233.03
2023-09-06T11:56:41.319Z,94228.50
2023-09-06T11:59:13.749Z,94239.72
2023-09-06T12:01:42.041Z,94241.09
2023-09-06T12:04:14.574Z,94224.63
2023-09-06T12:06:43.382Z,94231.97
2023-09-06T12:09:13.512Z,94207.34
2023-09-06T12:11:40.792Z,94221.03
2023-09-06T12:14:10.596Z,94222.66
2023-09-06T12:16:38.252Z,94202.44
2023-09-06T12:19:04.834Z,94215.03
2023-09-06T12:21:31.540Z,94226.81
2023-09-06T12:23:59.263Z,94222.22
2023-09-06T12:26:25.918Z,94213.97
2023-09-06T12:28:52.409Z,94205.06
2023-09-06T12:31:20.069Z,94204.97
2023-09-06T12:33:49.309Z,94216.50
2023-09-06T12:36:18.779Z,94216.41
2023-09-06T12:38:45.742Z,94210.28
2023-09-06T12:41:13.566Z,94197.00
2023-09-06T12:43:40.122Z,94196.13
2023-09-06T12:46:08.091Z,94205.28
2023-09-06T12:48:35.994Z,94197.59
2023-09-06T12:51:04.250Z,94184.06
2023-09-06T12:53:31.286Z,94206.72
2023-09-06T12:55:57.769Z,94180.72
2023-09-06T12:58:24.286Z,94189.19
2023-09-06T13:00:51.209Z,94199.03
2023-09-06T13:03:18.364Z,94188.31
2023-09-06T13:05:47.145Z,94202.53
2023-09-06T13:08:13.963Z,94193.25
2023-09-06T13:10:40.776Z,94171.94
2023-09-06T13:13:07.435Z,94194.63
2023-09-06T13:15:34.089Z,94192.97
2023-09-06T13:18:00.700Z,94190.28
2023-09-06T13:20:27.217Z,94171.31
2023-09-06T13:22:53.761Z,94169.78
2023-09-06T13:25:20.987Z,94168.78
2023-09-06T13:27:47.902Z,94163.28
2023-09-06T13:30:14.625Z,94176.59
2023-09-06T13:32:41.539Z,94164.09
2023-09-06T13:35:08.566Z,94166.38
2023-09-06T13:37:35.064Z,94164.09
2023-09-06T13:40:01.695Z,94152.97
2023-09-06T13:42:29.333Z,94157.19
2023-09-06T13:44:56.439Z,94147.22
2023-09-06T13:47:23.972Z,94154.25
2023-09-06T13:49:51.698Z,94144.75
2023-09-06T13:52:18.957Z,94170.81
2023-09-06T13:54:45.809Z,94159.03
2023-09-06T13:57:12.391Z,94151.94
2023-09-06T13:59:39.822Z,94159.59
2023-09-06T14:02:07.206Z,94153.00
2023-09-06T14:04:37.769Z,94157.22
2023-09-06T14:07:04.809Z,94154.03
2023-09-06T14:09:31.368Z,94162.47
2023-09-06T14:11:57.811Z,94130.28
2023-09-06T14:14:24.983Z,94144.38
2023-09-06T14:16:52.074Z,94159.13
2023-09-06T14:19:18.595Z,94157.88
2023-09-06T14:21:47.156Z,94148.56
2023-09-06T14:24:16.162Z,94142.00
2023-09-06T14:26:46.050Z,94151.66
2023-09-06T14:29:15.643Z,94150.47
2023-09-06T14:31:42.300Z,94150.81
2023-09-06T14:34:09.031Z,94136.16
2023-09-06T14:36:36.033Z,94148.47
2023-09-06T14:39:05.762Z,94142.78
2023-09-06T14:41:33.877Z,94145.56
2023-09-06T14:44:00.538Z,94131.81
2023-09-06T14:46:27.079Z,94151.34
2023-09-06T14:48:53.748Z,94133.41
2023-09-06T14:51:20.406Z,94136.25
2023-09-06T14:53:47.128Z,94135.25
2023-09-06T14:56:16.195Z,94116.06
2023-09-06T14:58:43.066Z,94139.84
2023-09-06T15:01:09.856Z,94110.13
2023-09-06T15:03:36.635Z,94105.63
2023-09-06T15:06:06.750Z,94130.78
2023-09-06T15:08:33.527Z,94122.16
2023-09-06T15:11:00.254Z,94127.13
2023-09-06T15:13:26.822Z,94117.72
2023-09-06T15:15:53.688Z,94117.72
2023-09-06T15:18:20.293Z,94115.03
2023-09-06T15:20:47.523Z,94121.81
2023-09-06T15:23:15.204Z,94118.72
2023-09-06T15:25:41.980Z,94123.38
2023-09-06T15:28:08.535Z,94133.84
2023-09-06T15:30:35.787Z,94126.09
2023-09-06T15:33:03.342Z,94135.06
2023-09-06T15:35:30.191Z,94120.34
2023-09-06T15:38:05.862Z,94137.47
2023-09-06T15:40:34.266Z,94136.78
2023-09-06T15:43:03.228Z,94133.06
2023-09-06T15:45:30.047Z,94136.34
2023-09-06T15:47:57.022Z,94118.16
2023-09-06T15:50:25.213Z,94128.88
2023-09-06T15:52:52.874Z,94103.81
2023-09-06T15:55:19.461Z,94122.53
2023-09-06T15:57:46.086Z,94129.69
2023-09-06T16:00:29.945Z,94124.75
2023-09-06T16:02:58.813Z,94120.91
2023-09-06T16:05:25.766Z,94125.91
2023-09-06T16:07:52.878Z,94128.59
2023-09-06T16:10:19.393Z,94113.38
2023-09-06T16:12:48.992Z,94121.75
2023-09-06T16:15:16.920Z,94116.59
2023-09-06T16:17:43.763Z,94126.69
2023-09-06T16:20:12.270Z,94124.09
2023-09-06T16:22:39.202Z,94111.81
2023-09-06T16:25:08.559Z,94122.59
2023-09-06T16:27:35.235Z,94060.19
2023-09-06T16:30:02.310Z,94123.00
2023-09-06T16:32:28.981Z,94123.41
2023-09-06T16:34:55.461Z,94128.09
2023-09-06T16:37:22.131Z,94115.91
2023-09-06T16:39:48.701Z,94136.00
2023-09-06T16:42:17.221Z,94131.25
2023-09-06T16:44:43.799Z,94127.13
2023-09-06T16:47:13.126Z,94138.91
2023-09-06T16:49:43.626Z,94146.44
2023-09-06T16:52:10.567Z,94133.19
2023-09-06T16:54:37.540Z,94149.59
2023-09-06T16:57:05.189Z,94147.00
2023-09-06T16:59:32.374Z,94133.91
2023-09-06T17:01:59.301Z,94139.47
2023-09-06T17:04:26.016Z,94150.19
2023-09-06T17:06:52.500Z,94138.78
2023-09-06T17:09:18.970Z,94138.28
2023-09-06T17:11:45.577Z,94132.75
2023-09-06T17:14:12.648Z,94149.47
2023-09-06T17:16:39.834Z,94146.47
2023-09-06T17:19:10.792Z,94143.84
2023-09-06T17:21:40.334Z,94131.19
2023-09-06T17:24:09.372Z,94140.84
2023-09-06T17:26:40.889Z,94145.25
2023-09-06T17:29:07.460Z,94155.25
2023-09-06T17:31:35.349Z,94147.88
2023-09-06T17:34:02.296Z,94141.22
2023-09-06T17:36:29.524Z,94138.63
2023-09-06T17:38:56.211Z,94143.47
2023-09-06T17:41:24.443Z,94151.53
2023-09-06T17:43:52.015Z,94160.59
2023-09-06T17:46:25.181Z,94148.91
2023-09-06T17:48:56.131Z,94144.63
2023-09-06T17:51:23.776Z,94151.03
2023-09-06T17:53:51.704Z,94091.28
2023-09-06T17:56:20.826Z,94159.44
2023-09-06T17:58:50.545Z,94178.00
2023-09-06T18:01:17.696Z,94172.06
2023-09-06T18:03:46.583Z,94184.69
2023-09-06T18:06:15.871Z,94148.88
2023-09-06T18:08:44.110Z,94183.88
2023-09-06T18:11:12.604Z,94164.59
2023-09-06T18:13:41.253Z,94183.72
2023-09-06T18:16:12.120Z,94174.50
2023-09-06T18:18:38.974Z,94188.94
2023-09-06T18:21:10.139Z,94173.91
2023-09-06T18:23:39.892Z,94176.31
2023-09-06T18:26:09.126Z,94199.13
2023-09-06T18:28:35.933Z,94165.97
2023-09-06T18:31:02.951Z,94185.63
2023-09-06T18:33:29.462Z,94190.28
2023-09-06T18:35:56.541Z,94197.53
2023-09-06T18:38:24.301Z,94186.69
2023-09-06T18:40:54.494Z,94188.66
2023-09-06T18:43:23.513Z,94198.63
2023-09-06T18:45:51.197Z,94181.34
2023-09-06T18:48:20.286Z,94192.91
2023-09-06T18:50:48.127Z,94141.25
2023-09-06T18:53:14.954Z,94195.28
2023-09-06T18:55:44.358Z,94175.09
2023-09-06T18:58:11.993Z,94196.25
2023-09-06T19:00:42.242Z,94206.38
2023-09-06T19:03:13.190Z,94221.41
2023-09-06T19:05:44.129Z,94223.66
2023-09-06T19:08:26.255Z,94216.91
2023-09-06T19:10:52.864Z,94210.91
2023-09-06T19:13:21.082Z,94224.03
2023-09-06T19:15:49.163Z,94216.75
2023-09-06T19:18:19.027Z,94217.47
2023-09-06T19:20:45.645Z,94204.75
2023-09-06T19:23:17.747Z,94210.72
2023-09-06T19:25:55.391Z,94222.56
2023-09-06T19:28:23.375Z,94229.34
2023-09-06T19:30:57.698Z,94229.34
2023-09-06T19:33:24.905Z,94221.09
2023-09-06T19:35:51.526Z,94204.31
2023-09-06T19:38:21.424Z,94219.81
2023-09-06T19:40:48.875Z,94217.28
2023-09-06T19:43:15.302Z,94227.63
2023-09-06T19:45:42.045Z,94222.34
2023-09-06T19:48:08.554Z,94209.84
2023-09-06T19:50:35.206Z,94223.94
2023-09-06T19:53:03.063Z,94191.75
2023-09-06T19:55:30.533Z,94214.53
2023-09-06T19:57:57.057Z,94219.56
2023-09-06T20:00:23.645Z,94216.53
2023-09-06T20:02:50.191Z,94208.22
2023-09-06T20:05:17.092Z,94198.84
2023-09-06T20:07:43.697Z,94209.00
2023-09-06T20:10:10.366Z,94200.75
2023-09-06T20:12:36.820Z,94206.50
2023-09-06T20:15:05.040Z,94203.31
2023-09-06T20:17:31.825Z,94177.59
2023-09-06T20:20:00.264Z,94189.75
2023-09-06T20:22:26.768Z,94204.91
2023-09-06T20:24:53.517Z,94201.16
2023-09-06T20:27:19.935Z,94203.91
2023-09-06T20:29:48.149Z,94211.50
2023-09-06T20:32:14.776Z,94180.97
2023-09-06T20:34:42.945Z,94207.34
2023-09-06T20:37:10.810Z,94226.63
2023-09-06T20:39:37.335Z,94212.59
2023-09-06T20:42:06.282Z,94213.06
2023-09-06T20:44:33.223Z,94213.28
2023-09-06T20:47:04.684Z,94206.88
2023-09-06T20:49:31.774Z,94222.91
2023-09-06T20:51:58.300Z,94223.47
2023-09-06T20:54:24.821Z,94197.00
2023-09-06T20:56:51.811Z,94204.56
2023-09-06T20:59:18.281Z,94201.94
2023-09-06T21:01:44.915Z,94208.09
2023-09-06T21:04:11.591Z,94209.72
2023-09-06T21:06:38.532Z,94207.09
2023-09-06T21:09:05.821Z,94234.59
2023-09-06T21:11:32.960Z,94217.50
2023-09-06T21:13:59.499Z,94220.75
2023-09-06T21:16:26.120Z,94221.09
2023-09-06T21:18:52.624Z,94218.53
2023-09-06T21:21:19.117Z,94230.16
2023-09-06T21:23:46.119Z,94211.91
2023-09-06T21:26:12.616Z,94224.31
2023-09-06T21:28:39.050Z,94215.16
2023-09-06T21:31:05.607Z,94206.13
2023-09-06T21:33:33.194Z,94198.84
2023-09-06T21:35:59.852Z,94209.13
2023-09-06T21:38:26.365Z,94221.28
2023-09-06T21:40:52.920Z,94220.31
2023-09-06T21:43:20.061Z,94229.41
2023-09-06T21:45:47.604Z,94222.88
2023-09-06T21:48:15.000Z,94211.91
2023-09-06T21:50:42.558Z,94237.38
2023-09-06T21:53:09.630Z,94233.56
2023-09-06T21:55:36.347Z,94215.13
2023-09-06T21:58:10.356Z,94225.53
2023-09-06T22:00:38.368Z,94211.59
2023-09-06T22:03:05.247Z,94206.09
2023-09-06T22:05:32.017Z,94217.72
2023-09-06T22:07:58.580Z,94219.78
2023-09-06T22:10:25.221Z,94227.81
2023-09-06T22:12:52.070Z,94203.97
2023-09-06T22:15:18.703Z,94217.00
2023-09-06T22:17:45.586Z,94208.63
2023-09-06T22:20:12.465Z,94208.91
2023-09-06T22:22:39.383Z,94218.84
2023-09-06T22:25:07.006Z,94206.56
2023-09-06T22:27:34.230Z,94218.13
2023-09-06T22:30:00.848Z,94202.81
2023-09-06T22:32:27.404Z,94211.34
2023-09-06T22:34:55.196Z,94194.06
2023-09-06T22:37:21.747Z,94197.72
2023-09-06T22:39:48.285Z,94222.72
2023-09-06T22:42:14.910Z,94208.16
2023-09-06T22:44:41.453Z,94198.13
2023-09-06T22:47:09.046Z,94203.81
2023-09-06T22:49:38.414Z,94211.53
2023-09-06T22:52:06.973Z,94209.59
2023-09-06T22:54:36.873Z,94222.00
2023-09-06T22:57:04.408Z,94212.78
2023-09-06T22:59:31.231Z,94221.00
2023-09-06T23:01:58.873Z,94135.25
2023-09-06T23:04:25.746Z,94219.84
2023-09-06T23:06:52.895Z,94211.78
2023-09-06T23:09:20.183Z,94224.72
2023-09-06T23:11:51.132Z,94238.47
2023-09-06T23:14:19.626Z,94238.50
2023-09-06T23:16:48.727Z,94224.44
2023-09-06T23:19:20.953Z,94228.09
2023-09-06T23:21:52.272Z,94205.50
2023-09-06T23:24:19.919Z,94225.28
2023-09-06T23:26:48.897Z,94207.56
2023-09-06T23:29:17.456Z,94224.50
2023-09-06T23:31:54.384Z,94233.16
2023-09-06T23:34:27.882Z,94239.44
2023-09-06T23:36:57.191Z,94226.53
2023-09-06T23:39:28.583Z,94224.16
2023-09-06T23:41:56.369Z,94227.78
2023-09-06T23:44:23.344Z,94209.25
2023-09-06T23:46:50.670Z,94225.78
2023-09-06T23:49:17.664Z,94213.31
2023-09-06T23:51:44.208Z,94217.75
2023-09-06T23:54:11.913Z,94220.19
2023-09-06T23:56:39.632Z,94216.97
2023-09-06T23:59:06.141Z,94205.25
